»·PEaware :: CAX378 KIFP-MMES

CAX378 :: KIFP-MMES

FLIGHT INFORMATION

Flight Status: Arrived
Operator:
California Airlines (website)
More flights by this operator :: More flights under this callsign
Pilot: Scott M. (2435)
Aircraft: BEECH AIRCRAFT SUPER KING AIR COMMUTER
(BE20)
More flights by this aircraft type
Origin: KIFP Laughlin/Bullhead Intl
United States
Destination: MMES Ensenada Intl
Mexico
More flights between these airports :: More routes between these airports
Route: EED PKE BLH BZA MXL
File this flight plan on PilotEdge
Remarks:
Altitude:
(Current/Filed)
10,500ft
Speed:
(Current/Filed)
240kts
Departed: 16-Nov-14 07:17 AM
Arrived: 16-Nov-14 08:32 AM
Distance/Time
Traveled:
226nm/1:15
Distance/Time
To Go:
Arrived

Flight Plot

Page will automatically refresh every two minutes.


Map Options




Map Legend


Flown Route
Filed Route
Departure Airport
Arrival Airport
Navaid (VOR, NDB)
Fix

Horizontal Profiles

Position Reports

Time Latitude Longitude Heading Altitude Ground
Speed
16-Nov-14 07:00 35.159744 -114.556377 314 705ft 0kts
16-Nov-14 07:01 35.159744 -114.556377 314 705ft 0kts
16-Nov-14 07:02 35.159744 -114.556377 314 705ft 0kts
16-Nov-14 07:03 35.159744 -114.556377 314 705ft 0kts
16-Nov-14 07:04 35.159744 -114.556377 314 705ft 0kts
16-Nov-14 07:05 35.159744 -114.556377 314 705ft 0kts
16-Nov-14 07:06 35.159744 -114.556377 314 705ft 0kts
16-Nov-14 07:07 35.159392 -114.558170 219 704ft 10kts
16-Nov-14 07:08 35.154428 -114.557932 177 705ft 24kts
16-Nov-14 07:09 35.148056 -114.557449 175 705ft 25kts
16-Nov-14 07:10 35.146289 -114.557321 183 705ft 0kts
16-Nov-14 07:11 35.146289 -114.557321 183 705ft 0kts
16-Nov-14 07:12 35.145831 -114.557683 270 705ft 0kts
16-Nov-14 07:13 35.145830 -114.557693 274 705ft 0kts
16-Nov-14 07:14 35.146551 -114.558717 0 705ft 31kts
16-Nov-14 07:15 35.172446 -114.563652 317 2317ft 132kts
16-Nov-14 07:16 35.146852 -114.587891 160 4391ft 178kts
16-Nov-14 07:17 35.095071 -114.569572 162 5487ft 237kts
16-Nov-14 07:18 35.028314 -114.550404 161 6598ft 251kts
16-Nov-14 07:19 34.960603 -114.530962 160 7894ft 247kts
16-Nov-14 07:20 34.896623 -114.516501 157 9660ft 226kts
16-Nov-14 07:21 34.837114 -114.498912 156 10456ft 251kts
16-Nov-14 07:22 34.765004 -114.481325 170 10457ft 280kts
16-Nov-14 07:23 34.686861 -114.498563 191 10447ft 291kts
16-Nov-14 07:24 34.608774 -114.523208 194 10427ft 287kts
16-Nov-14 07:25 34.532476 -114.546480 199 10415ft 277kts
16-Nov-14 07:26 34.459373 -114.569936 198 10422ft 270kts
16-Nov-14 07:27 34.386733 -114.592747 196 10417ft 269kts
16-Nov-14 07:28 34.314684 -114.615297 197 10413ft 268kts
16-Nov-14 07:29 34.260847 -114.632134 198 10402ft 265kts
16-Nov-14 07:30 34.196302 -114.652289 198 10464ft 259kts
16-Nov-14 07:31 34.124059 -114.675229 198 10458ft 278kts
16-Nov-14 07:32 34.053721 -114.690523 187 10443ft 287kts
16-Nov-14 07:33 33.974229 -114.702055 188 10442ft 289kts
16-Nov-14 07:34 33.895106 -114.714358 188 10446ft 283kts
16-Nov-14 07:35 33.817571 -114.726502 187 10494ft 279kts
16-Nov-14 07:36 33.751800 -114.736831 187 10530ft 279kts
16-Nov-14 07:37 33.675030 -114.748771 186 10515ft 281kts
16-Nov-14 07:38 33.597916 -114.761652 187 10496ft 281kts
16-Nov-14 07:39 33.529277 -114.749466 167 10478ft 276kts
16-Nov-14 07:40 33.457302 -114.736839 167 10457ft 276kts
16-Nov-14 07:41 33.383302 -114.724020 167 10437ft 274kts
16-Nov-14 07:42 33.308223 -114.711185 165 10439ft 271kts
16-Nov-14 07:43 33.233532 -114.698268 167 10411ft 270kts
16-Nov-14 07:44 33.160135 -114.683804 167 10360ft 266kts
16-Nov-14 07:45 33.088995 -114.669123 168 10329ft 260kts
16-Nov-14 07:46 33.023366 -114.655509 167 10383ft 257kts
16-Nov-14 07:47 32.970586 -114.644513 167 10379ft 257kts
16-Nov-14 07:48 32.888728 -114.626843 167 10385ft 256kts
16-Nov-14 07:49 32.818415 -114.611235 167 10379ft 257kts
16-Nov-14 07:50 32.762053 -114.627955 221 10378ft 254kts
16-Nov-14 07:51 32.743725 -114.703718 264 10379ft 241kts
16-Nov-14 07:52 32.730644 -114.777118 262 10383ft 242kts
16-Nov-14 07:53 32.715128 -114.855240 262 10381ft 244kts
16-Nov-14 07:54 32.700820 -114.922878 260 10379ft 246kts
16-Nov-14 07:55 32.683654 -115.000394 261 10456ft 251kts
16-Nov-14 07:56 32.666255 -115.079714 260 10452ft 242kts
16-Nov-14 07:57 32.649722 -115.156557 259 10451ft 241kts
16-Nov-14 07:58 32.620187 -115.229795 244 10452ft 252kts
16-Nov-14 07:59 32.588387 -115.304953 245 10451ft 255kts
16-Nov-14 08:00 32.553146 -115.371034 236 10451ft 257kts
16-Nov-14 08:01 32.521004 -115.425616 236 10451ft 257kts
16-Nov-14 08:02 32.488642 -115.480569 236 10451ft 257kts
16-Nov-14 08:03 32.449960 -115.546179 236 10451ft 257kts
16-Nov-14 08:04 32.408574 -115.615633 236 10448ft 257kts
16-Nov-14 08:05 32.367929 -115.684058 236 10449ft 257kts
16-Nov-14 08:06 32.327726 -115.751790 236 10449ft 257kts
16-Nov-14 08:07 32.286684 -115.820890 236 10449ft 256kts
16-Nov-14 08:08 32.245860 -115.889508 236 10449ft 256kts
16-Nov-14 08:09 32.205447 -115.957357 236 10452ft 256kts
16-Nov-14 08:10 32.164688 -116.025987 236 10288ft 257kts
16-Nov-14 08:11 32.125661 -116.092082 236 9423ft 248kts
16-Nov-14 08:12 32.082463 -116.154737 229 8512ft 246kts
16-Nov-14 08:13 32.038022 -116.215710 229 7460ft 247kts
16-Nov-14 08:14 31.997242 -116.272423 229 5745ft 204kts
16-Nov-14 08:15 31.965455 -116.317917 233 5234ft 185kts
16-Nov-14 08:16 31.932762 -116.373687 232 4961ft 224kts
16-Nov-14 08:17 31.898313 -116.428725 237 4147ft 167kts
16-Nov-14 08:18 31.878356 -116.472288 242 3791ft 159kts
16-Nov-14 08:19 31.853283 -116.515641 256 3906ft 172kts
16-Nov-14 08:20 31.834998 -116.561872 195 3078ft 141kts
16-Nov-14 08:21 31.810141 -116.586747 275 1608ft 121kts
16-Nov-14 08:22 31.824535 -116.617805 306 1758ft 111kts
16-Nov-14 08:23 31.805645 -116.620079 122 796ft 136kts
16-Nov-14 08:24 31.785320 -116.585347 122 1014ft 129kts
16-Nov-14 08:25 31.796652 -116.563895 317 1712ft 148kts
16-Nov-14 08:26 31.816646 -116.602782 303 1295ft 136kts
16-Nov-14 08:27 31.830112 -116.642364 243 999ft 140kts
16-Nov-14 08:28 31.809772 -116.630016 106 686ft 118kts
16-Nov-14 08:29 31.797414 -116.606905 121 69ft 79kts
16-Nov-14 08:30 31.791472 -116.596420 115 69ft 18kts
16-Nov-14 08:31 31.793183 -116.596106 1 69ft 27kts
16-Nov-14 08:32 31.796320 -116.596177 0 69ft 4kts
16-Nov-14 08:33 31.799171 -116.596858 327 69ft 11kts
16-Nov-14 08:34 31.799915 -116.597021 164 69ft 0kts
16-Nov-14 08:35 31.799915 -116.597021 164 69ft 0kts
16-Nov-14 08:36 31.799915 -116.597021 164 69ft 0kts
16-Nov-14 08:37 31.799915 -116.597021 164 69ft 0kts

Navigation Log

Ident Type
Flight plan parsing failed, navigation log unavailable